CheckWX is a tool to help pilots better visualize weather data.  It is not intended as a substitute for an official pre-flight weather briefing.

21:50:26 UTC

KLBF METAR
North Platte Regional Lee Bird Field Airport
North Platte, Nebraska, USA
Current

57 mins ago

KLBF 082053Z AUTO 02012KT 10SM CLR 16/00 A3007 RMK AO2 PK WND 06026/2024 WSHFT 2037 SLP183 T01560000 51009
Observed
Apr-8 @ 20:53 UTC
Wind
  • 020° at 12 KTS
Visibility
Flight Rules
VFR
Cloud Levels
  • Clear skies
Temperature
16°C / 61°F
Dewpoint
C / 32°F
Humidity
34%
Altimeter
30.07" Hg
Pressure
1018.32 hPa
Previous

2 hours ago

KLBF 081953Z AUTO 03015G22KT 10SM CLR 16/01 A3007 RMK AO2 PK WND 03026/1928 SLP178 T01610006
Observed
Apr-8 @ 19:53 UTC
Wind
  • 030° at 15 KTS
  • Gusting to 22 KTS
Visibility
Flight Rules
VFR
Cloud Levels
  • Clear skies
Temperature
16°C / 61°F
Dewpoint
C / 34°F
Humidity
36%
Altimeter
30.07" Hg
Pressure
1018.32 hPa
Previous

3 hours ago

KLBF 081853Z AUTO 04016G25KT 10SM CLR 15/02 A3006 RMK AO2 PK WND 04027/1825 SLP171 T01500022
Observed
Apr-8 @ 18:53 UTC
Wind
  • 040° at 16 KTS
  • Gusting to 25 KTS
Visibility
Flight Rules
VFR
Cloud Levels
  • Clear skies
Temperature
15°C / 59°F
Dewpoint
C / 36°F
Humidity
42%
Altimeter
30.06" Hg
Pressure
1017.92 hPa